• Back
  •  
  • Position of Reservoir Gates
S.No.
No. of opened gates
Position of opening (In m)
Reporting Date
Reporting Time
Discharge in Cumecs
Discharge in Cusecs
Actual date and time of Gate opening
1
2
3
4
5
6
7
8
1 1 18/09/2012 7:56:04 AM 38.77
2 1 19/09/2012 7:52:17 AM 38.77
3 0 20/09/2012 7:37:13 AM 0
4 0 21/09/2012 7:33:07 AM 0
5 2 22/09/2012 8:35:12 AM 155.68
6 0 23/09/2012 8:24:23 AM 0
7 2 12/09/2012 7:27:03 AM 153.95
8 1 01/09/2012 9:19:12 AM 76.01
9 0 02/09/2012 10:15:41 AM 0
10 0 03/09/2012 6:50:47 AM 0
11 2 05/09/2012 8:41:40 AM 152.79
12 1 13/09/2012 7:50:47 AM 31.46
13 0 14/09/2012 7:57:26 AM 0
14 0 15/09/2012 7:45:09 AM 0
15 0 16/09/2012 7:48:30 AM 0
16 0 24/09/2012 7:31:40 AM 0
17 0 25/09/2012 7:27:33 AM 0
18 0 26/09/2012 7:35:00 AM 0
19 1 27/09/2012 7:31:46 AM 15.85
20 2 07/09/2012 4:40:47 PM 153.56
21 1 08/09/2012 7:24:11 AM 62.27
22 1 09/09/2012 7:10:33 AM 62.27
23 1 10/09/2012 7:55:11 AM 62.27
24 1 28/09/2012 7:24:39 AM 15.85
25 1 29/09/2012 7:53:58 AM 15.85
26 1 30/09/2012 7:44:34 AM 15.85
27 0 03/10/2012 7:27:00 AM 0
28 0 07/10/2012 8:05:08 AM 0
29 2 0.25 08/08/2020 8:00:00 AM 83.12 2935.38
30 4 1 08/08/2020 5:00:00 PM 566.3 19998.88 20000 cusec
31 1 1 09/08/2020 8:00:00 AM 141.6 5000.6 5000 cusec
32 1 0.5 09/08/2020 12:00:00 PM 70.8 2500.3 2500 cusec
33 1 1 09/08/2020 8:00:00 PM 141.6 5000.6 5000 cusec
34 1 1 10/08/2020 8:00:00 AM 141.6 5000.6
35 1 1 11/08/2020 8:00:00 AM 141.6 5000.6
36 3 2 12/08/2020 8:00:00 AM 283.1 9997.68
37 3 2 13/08/2020 8:00:00 AM 283.2 10001.21
38 1 1 14/08/2020 8:00:00 AM 141.6 5000.6
39 1 1 15/08/2020 8:00:00 AM 141.6 5000.6
40 1 0.5 16/08/2020 8:00:00 AM 70.8 2500.3
41 1 0.5 17/08/2020 8:00:00 AM 70.8 2500.3
42 1 0.5 18/08/2020 8:00:00 AM 70.8 2500.3
43 1 0.5 19/08/2020 8:00:00 AM 70.79 2499.95
44 1 0.25 20/08/2020 8:00:00 AM 36 1271.34
45 1 0.25 21/08/2020 8:00:00 AM 36 1271.34
46 1 1.5 21/08/2020 12:00:02 PM 212.4 7500.91
47 3 1.33 21/08/2020 4:00:00 PM 566.3 19998.88
48 3 1.33 22/08/2020 8:00:00 AM 566.3 19998.88 03 Nos Gates opened @1.33M Each wef 21-08-2020 4.00PM
49 3 0.67 22/08/2020 10:00:00 AM 283.2 10001.21 2 gate opening - 0.5 m 1 gate opening - 1 m
50 1 1 22/08/2020 5:00:00 PM 141.6 5000.6
51 1 1 24/08/2020 8:00:00 AM 141.6 5000.6
52 1 1 23/08/2020 8:00:00 AM 150 5297.25
53 1 1 24/08/2020 8:00:00 AM 150 5297.25 Gate opened on Dated 23/08/2020 at 8.00AM
54 1 0.5 25/08/2020 8:00:00 AM 70.8 2500.3
55 1 0.18 12/10/2021 8:00:00 AM 42.47 1499.83 12.10.21 8am
56 0 0 12/10/2021 4:00:00 PM 0 0
57 1 0.5 26/08/2020 12:00:00 AM 70.8 2500.3
58 1 0.5 27/08/2020 12:00:00 AM 70.8 2500.3
59 1 0.5 28/08/2020 12:00:00 AM 70.8 2500.3
60 6 10 28/08/2020 4:15:00 PM 1473 52018.99
61 8 1.87 28/08/2020 6:00:00 PM 2124 75009.06
62 8 1.87 29/08/2020 12:00:00 AM 2124 75009.06 Actual Date of Gate Opening 28.08.2020 & Time 6.00 PM
63 1 0.22 27/07/2016 2:00:00 PM 28.32 1000.12
64 1 0.22 28/07/2016 12:01:00 AM 28.32 1000.12
65 2 0.21 28/07/2016 1:01:00 PM 70.79 2499.95
66 2 0.21 29/07/2016 12:01:00 AM 70.79 2499.95
67 2 0.21 30/07/2016 8:00:00 AM 70.76 2498.89 1gate-0.22m,1gate-0.2m open,Average opening 0.21m.Opening date-28/7/2016 1.00PM
68 10 4.4 29/08/2020 8:00:00 AM 6230 220012.45
69 2 0.37 30/07/2016 2:00:00 PM 113.2 3997.66
70 2 0.37 31/07/2016 12:01:00 AM 113.2 3997.66 Dt of opening 30/7/2016 2.00PM
71 2 0.37 30/07/2016 2:01:00 PM 113.2 3997.66
72 4 1.9 04/08/2016 10:00:00 AM 283.1 9997.68 Average gate opening-1.90m
73 2 0.37 01/08/2016 12:01:00 AM 113.2 3997.66 gate open 30/7/2016 2:00 PM
74 2 0.37 03/08/2016 12:00:00 AM 113.2 3997.66 02 Nos Gates are opened since 2.00PM Dated 30/07/2016
75 10 4 30/08/2020 12:00:00 AM 5664 200024.16 Gates opened on dated 29.08.2020 at 8.00AM
76 1 0.25 30/08/2020 8:00:00 AM 36.25 1280.17
77 1 0.25 30/08/2020 12:00:00 PM 36.25 1280.17
78 2 0.37 02/08/2016 12:00:00 PM 113.2 3997.66
79 2 0.37 02/08/2016 8:01:00 AM 113.2 3997.66 Opened at 2 PM on 30/07/2016
80 4 0.48 03/08/2016 11:01:00 AM 283.1 9997.68 04 No. Gates are Opened at 11.00A.M. Dated 03/08/2016
81 4 0.75 04/08/2016 12:01:00 AM 424.8 15001.81 gate open 3/8/2016 10 PM. Av. gate opening 0.75m
82 4 0.48 05/08/2016 12:01:00 AM 283.1 9997.68 gate open-4/8/2016 10.00AM.Av. gate open-0.475m
83 2 0.47 05/08/2016 11:00:00 AM 141.5 4997.07
84 2 0.94 06/08/2016 12:01:00 AM 141.5 4997.07 Gate open-5/8/2016 11:00AM.Av.Openinig-0.94m
85 0 0 06/08/2016 11:00:00 AM 0 0 closed on 6/8/2016 11:00 AM
86 1 0.25 31/08/2020 12:00:00 PM 36.25 1280.17 Gates Opened on Dated 30.08.2020 at 12.00 PM
87 1 0.25 01/09/2020 12:00:00 AM 35.39 1249.8 31/08/2020 12.000PM
88 1 0.25 02/09/2020 12:00:00 AM 50 1765.75 01/09/2020 08.00AM
89 1 0.25 06/09/2020 12:00:00 AM 49.55 1749.86 05/09/2020 8.00PM
90 1 0.25 03/09/2020 12:00:00 AM 49.56 1750.21
91 1 0.25 04/09/2020 12:00:00 AM 49.55 1749.86
92 1 0.25 05/09/2020 12:00:00 AM 49.55 1749.86 04/09/2020 8.00 PM
93 1 0.25 06/09/2020 4:00:00 PM 51.28 1810.95
94 1 0.25 07/09/2020 12:00:00 AM 59.57 2103.71
95 1 0.25 08/09/2020 12:00:00 AM 59.57 2103.71
96 1 0.25 09/09/2020 12:00:00 AM 59.57 2103.71
97 1 0.25 10/09/2020 12:00:00 AM 59.57 2103.71
98 1 0.25 11/09/2020 8:00:00 AM 49.55 1749.86
99 1 0.25 12/09/2020 8:00:00 AM 59.57 2103.71
100 1 0.25 12/09/2020 12:00:00 AM 59.57 2103.71
101 1 0.25 12/09/2020 4:00:00 PM 49.55 1749.86
102 1 0.25 12/09/2020 8:00:00 PM 49.55 1749.86
103 1 0.25 13/09/2020 8:00:00 AM 49.55 1749.86
104 1 0.25 13/09/2020 4:00:00 PM 49.55 1749.86
105 1 0.25 13/09/2020 8:00:00 PM 49.55 1749.86
106 1 0.25 14/09/2020 12:00:00 PM 35.4 1250.15
107 1 2 23/09/2020 8:00:00 PM 283.2 10001.21
108 0 0 21/08/2016 10:00:00 AM 0 0 closed
109 1 2 24/09/2020 12:00:00 AM 283.1 9997.68
110 0 0 24/09/2020 4:00:00 PM 0 0 ALL GATES ARE CLOSED
111 1 2 24/09/2020 8:00:00 PM 297.3 10499.15
112 1 2 25/09/2020 12:00:00 AM 297.3 10499.15
113 0 0 25/09/2020 8:00:00 PM 0 0 Gate is closed
114 5 1.1 21/08/2016 5:30:00 AM 1080 38140.2
115 4 2.65 27/08/2016 4:00:00 AM 1400 49441
116 4 1 27/08/2016 11:00:00 AM 566 19988.29 Gate opening 1.0m Av.
117 0 0 27/08/2016 1:45:00 PM 0 0 Closed
118 2 0.9 28/08/2016 8:01:00 AM 2696 95209.24 Gate opened at 23:30 on 27.08.2016
119 0 0 29/08/2016 12:00:00 AM 0 0 Gate closed-28/8/2016 10 PM
120 2 0.45 30/08/2016 5:30:00 AM 130 4590.95
121 2 0.45 31/08/2016 12:00:00 AM 130 4590.95 Gate open-30/8/2016 5:30 AM
122 2 0.45 01/09/2016 12:00:00 AM 130 4590.95 Gate open-30/8/2016 5:30 AM
123 4 0.5 02/09/2016 2:00:00 AM 566 19988.29
124 2 0.6 02/09/2016 8:30:00 AM 173 6109.49 Gate open-0.60 M Time 08:30 AM
125 3 0.66 16/09/2021 8:00:00 PM 283.1 9997.68
126 2 0.2 03/09/2016 12:00:00 AM 62 2189.53 Gate open-2/9/2016 3PM
127 2 0.2 02/09/2016 4:00:01 PM 62 2189.53 Gate opened at 3 pm on 02/09/2016
128 0 0 03/09/2016 6:00:00 PM 0 0 closed
129 2 0.45 31/08/2019 11:00:00 AM 127.4 4499.13
130 4 0.47 01/09/2019 10:15:00 AM 283.1 9999.8
131 2 0.47 01/09/2019 4:00:00 PM 141.5 4998.84
132 4 0.5 03/09/2019 5:00:00 PM 312 11018.28
133 0 0 02/09/2019 7:00:00 AM 0 0 all gates are closed
134 1 1.5 02/09/2019 6:15:00 PM 14.15 499.71
135 2 0.2 03/09/2019 11:15:00 AM 60.88 2149.98
136 6 2 05/09/2019 11:20:00 AM 2038 71971.97
137 2 0.4 05/09/2019 4:00:00 PM 60.7 2143.62
138 0 0 05/09/2019 6:00:00 PM 0 0 ALL GATES ARE CLOSED
139 4 1.75 06/09/2019 8:00:00 AM 1008 35597.52
140 2 1.1 06/09/2019 12:00:00 PM 155.7 5498.55
141 2 2.2 06/09/2019 8:00:00 PM 334.5 11812.87
142 2 2.2 07/09/2019 12:01:00 AM 334.5 11812.87
143 2 1.1 07/09/2019 12:20:00 PM 311 10982.97
144 2 0.3 07/09/2019 1:00:00 PM 99 3496.18
145 9 2 08/09/2019 6:10:00 PM 2590 91465.85
146 9 2 09/09/2019 6:10:00 PM 2590 91465.85 gate opening since 8/9/2019at 6:10pm
147 9 2 09/09/2019 12:01:00 AM 2590 91465.85
148 8 1.62 09/09/2019 11:10:00 AM 1840 64979.6
149 10 1.7 09/09/2019 4:00:00 PM 2429 85780.13
150 2 1 10/09/2019 4:00:00 PM 150.4 5311.38
151 2 1 11/09/2019 6:00:00 AM 150.4 5311.38
152 4 4 11/09/2019 10:00:00 AM 597.6 21104.24
153 2 1.5 11/09/2019 4:00:00 AM 424.7 14998.28
154 2 1 12/09/2019 1:00:00 AM 306.2 10813.45
155 0 0 13/09/2019 6:00:00 AM 0 0 all gates are closed today at 6:0am
156 2 2 13/09/2019 2:57:00 AM 306.1 10810.98
157 2 0.2 14/09/2019 4:00:00 PM 76.12 2688.18
158 2 0.2 15/09/2019 8:00:00 AM 61.97 2188.47
159 2 0.2 15/09/2019 4:00:00 PM 76.11 2687.82
160 2 0.2 16/09/2019 12:30:00 PM 61.95 2187.76
161 2 0.2 16/09/2019 8:00:00 AM 76.11 2687.82
162 2 0.2 16/09/2019 9:00:00 PM 61.95 2187.76
163 2 0.2 17/09/2019 12:01:00 AM 61.95 2187.76
164 2 0.6 17/09/2019 8:10:00 AM 193.7 6840.52
165 1 0.2 19/09/2019 12:00:00 PM 36.81 1299.95
166 1 0.2 19/09/2019 4:00:00 PM 43.89 1549.98
167 2 0.6 18/09/2019 12:01:00 AM 193.7 6842.28
168 2 0.6 18/09/2019 8:20:00 AM 189.7 6699.96
169 1 0.4 19/09/2019 8:00:00 AM 76.11 2687.82
170 1 0.2 20/09/2019 12:01:00 AM 43.89 1549.98
171 1 0.4 18/09/2019 10:30:00 AM 76.11 2687.82
172 1 0.2 21/09/2019 12:01:00 AM 42.89 1514.66 gate opening since 20/9/2019at8:0pm
173 0 0 21/09/2019 11:00:00 AM 0 0 All Gates are closed.
174 0 0 22/09/2019 10:00:00 AM 0 0 All Gates are closed
175 1 0.4 26/09/2019 12:01:00 AM 62.75 2216.02
176 1 0.4 25/09/2019 4:00:00 PM 62.75 2216.02
177 1 0.4 25/09/2019 8:00:00 AM 77 2719.25
178 1 0.4 28/09/2019 3:45:00 AM 76.61 2705.48
179 1 0.4 24/09/2019 4:00:00 PM 75.75 2675.11
180 1 0.4 27/09/2019 12:01:00 AM 62.75 2216.02
181 1 0.4 27/09/2019 8:00:00 AM 76.61 2705.48
182 4 1 28/09/2019 10:00:00 AM 603 21294.94
183 8 1.5 28/09/2019 4:00:00 PM 1764 62295.66
184 8 1.5 29/09/2019 12:15:00 AM 1764 62295.66
185 2 2 29/09/2019 11:00:00 AM 292 10311.98
186 2 1 30/09/2019 12:01:00 AM 283.2 10001.21
187 2 0.5 30/09/2019 11:00:00 AM 158.6 5600.96
188 4 1 30/09/2019 8:00:00 PM 576 20341.44
189 0 0 01/10/2019 1:00:00 PM 0 0 all gates are closed
190 2 0.5 01/10/2019 12:00:00 PM 160.1 5653.93
191 0 0 01/10/2019 12:30:00 PM 0 0 All gates are closed
Powered by © Water Resources Department (MP). All Rights Reserved.